Time;durP1;ratioP1;P1;durP2;ratioP2;P2;SDS_P1;SDS_P2;PMS_P1;PMS_P2;Temp;Humidity;BMP_temperature;BMP_pressure;BME280_temperature;BME280_humidity;BME280_pressure;Samples;Min_cycle;Max_cycle;Signal;HPM_P1;HPM_P2
2023/04/27 03:58:57;;;;;;;4.95;3.47;;;;;;;7.60;48.36;94724.97;5093579;27;20698;-73
2023/04/27 04:01:27;;;;;;;5.63;3.83;;;;;;;7.51;48.34;94727.00;5091762;28;20197;-69
2023/04/27 04:03:54;;;;;;;4.53;3.20;;;;;;;7.45;49.14;94731.13;5092787;28;20189;-69
2023/04/27 04:06:21;;;;;;;4.75;3.30;;;;;;;7.43;48.89;94736.16;5092780;28;20188;-74
2023/04/27 04:08:48;;;;;;;5.72;3.80;;;;;;;7.40;48.87;94734.09;5092864;28;20245;-69
2023/04/27 04:11:17;;;;;;;7.70;4.10;;;;;;;7.41;48.38;94742.00;5092969;28;20195;-70
2023/04/27 04:13:44;;;;;;;3.85;3.45;;;;;;;7.42;48.46;94743.59;5091952;28;20181;-70
2023/04/27 04:16:14;;;;;;;3.50;3.20;;;;;;;7.38;48.21;94739.94;5092375;28;20585;-72
2023/04/27 04:18:41;;;;;;;4.45;3.15;;;;;;;7.40;48.22;94753.28;5091219;28;20443;-72
2023/04/27 04:21:09;;;;;;;4.45;3.15;;;;;;;7.41;48.90;94746.69;5091556;28;20616;-72
2023/04/27 04:23:39;;;;;;;4.80;2.95;;;;;;;7.42;48.14;94754.56;5091931;28;20522;-71
2023/04/27 04:26:07;;;;;;;3.92;3.03;;;;;;;7.48;48.65;94752.41;5125479;28;20199;-71
2023/04/27 04:28:38;;;;;;;3.35;2.90;;;;;;;7.47;48.36;94753.53;5092260;28;20189;-71
2023/04/27 04:31:05;;;;;;;3.50;2.95;;;;;;;7.49;48.47;94762.25;5092044;28;20200;-72
2023/04/27 04:33:38;;;;;;;5.72;3.05;;;;;;;7.55;48.23;94760.06;5091923;28;20188;-72
2023/04/27 04:36:10;;;;;;;4.95;2.70;;;;;;;7.55;48.60;94763.59;5125009;28;20199;-72
2023/04/27 04:38:37;;;;;;;5.20;3.25;;;;;;;7.57;48.71;94764.06;5090555;28;20657;-70
2023/04/27 04:41:03;;;;;;;5.97;3.10;;;;;;;7.73;49.48;94766.94;5124943;28;20204;-70
2023/04/27 04:43:32;;;;;;;5.32;3.08;;;;;;;8.00;50.07;94768.22;5091741;28;20191;-70
2023/04/27 04:46:01;;;;;;;3.88;3.05;;;;;;;7.99;49.05;94772.13;5091527;28;20176;-70
2023/04/27 04:48:29;;;;;;;4.43;3.15;;;;;;;7.82;49.05;94775.09;5091251;28;20303;-70
2023/04/27 04:51:05;;;;;;;5.15;3.20;;;;;;;7.70;48.34;94773.94;5091326;28;20231;-70
2023/04/27 04:53:36;;;;;;;3.95;3.05;;;;;;;7.68;49.31;94776.22;5091311;28;20619;-70
2023/04/27 04:56:11;;;;;;;4.90;2.95;;;;;;;7.61;48.76;94784.22;5091556;28;20301;-70
2023/04/27 04:58:40;;;;;;;5.45;3.42;;;;;;;7.62;49.08;94785.81;5089913;28;20664;-70
2023/04/27 05:01:07;;;;;;;5.95;3.47;;;;;;;7.60;49.43;94788.09;5090506;28;20295;-70
2023/04/27 05:03:38;;;;;;;4.75;3.60;;;;;;;7.63;50.05;94789.38;5090422;28;20294;-70
2023/04/27 05:06:07;;;;;;;4.22;3.35;;;;;;;7.67;50.59;94791.09;5090507;28;20609;-70
2023/04/27 05:08:36;;;;;;;5.50;3.28;;;;;;;7.69;50.78;94796.22;5120180;28;20315;-70
2023/04/27 05:11:08;;;;;;;5.45;3.53;;;;;;;7.68;50.61;94800.13;5077857;28;20227;-70
2023/04/27 05:13:37;;;;;;;4.78;3.15;;;;;;;7.69;51.06;94796.22;5076424;28;20197;-70
2023/04/27 05:16:05;;;;;;;4.25;3.17;;;;;;;7.68;50.46;94800.91;5077479;28;20592;-70
2023/04/27 05:18:36;;;;;;;4.90;4.03;;;;;;;7.71;50.65;94803.00;5077228;28;20262;-70
2023/04/27 05:21:06;;;;;;;4.82;3.50;;;;;;;7.80;51.65;94805.63;5076570;28;20205;-70
2023/04/27 05:23:37;;;;;;;3.95;3.15;;;;;;;7.80;51.28;94810.31;5076763;28;20246;-70
2023/04/27 05:26:11;;;;;;;4.60;3.22;;;;;;;7.83;51.46;94807.69;5077398;28;20189;-71
2023/04/27 05:28:39;;;;;;;6.70;3.35;;;;;;;7.80;50.67;94815.81;5076833;28;20306;-70
2023/04/27 05:31:06;;;;;;;6.57;3.40;;;;;;;7.83;51.45;94815.91;5077329;28;20616;-70
2023/04/27 05:33:33;;;;;;;3.92;3.47;;;;;;;7.80;50.42;94815.81;5076684;28;20258;-70
2023/04/27 05:36:02;;;;;;;5.03;3.50;;;;;;;7.76;49.99;94818.44;5077493;28;20224;-70
2023/04/27 05:38:30;;;;;;;4.32;3.25;;;;;;;7.71;50.53;94822.19;5076264;28;20229;-70
2023/04/27 05:41:06;;;;;;;6.13;3.67;;;;;;;7.65;49.90;94809.81;5077042;28;20224;-70
2023/04/27 05:43:33;;;;;;;3.80;3.40;;;;;;;7.62;49.93;94824.22;5110413;28;20188;-70
2023/04/27 05:46:00;;;;;;;4.03;3.40;;;;;;;7.63;50.04;94823.09;5076662;28;20548;-71
2023/04/27 05:48:27;;;;;;;7.53;3.90;;;;;;;7.62;49.80;94815.19;5077256;28;20262;-73
2023/04/27 05:51:00;;;;;;;4.38;3.63;;;;;;;7.58;50.21;94828.00;5076082;28;20208;-72
2023/04/27 05:53:27;;;;;;;4.65;3.97;;;;;;;7.65;50.83;94829.03;5076483;28;20193;-71
2023/04/27 05:55:53;;;;;;;4.07;3.70;;;;;;;7.72;50.56;94823.78;5110101;28;20197;-71
2023/04/27 05:58:22;;;;;;;3.95;3.28;;;;;;;7.69;50.10;94826.41;5077277;28;20228;-70
2023/04/27 06:00:49;;;;;;;4.53;3.92;;;;;;;7.73;50.20;94821.84;5077047;28;20181;-70
2023/04/27 06:03:20;;;;;;;4.30;3.70;;;;;;;7.77;49.81;94825.53;5076728;28;20609;-71
2023/04/27 06:05:54;;;;;;;5.40;4.28;;;;;;;7.82;50.25;94825.31;5109901;28;20193;-71
2023/04/27 06:08:24;;;;;;;4.20;3.78;;;;;;;7.86;49.82;94826.22;5109545;28;20220;-72
2023/04/27 06:10:52;;;;;;;5.93;4.63;;;;;;;7.91;50.28;94828.75;5076892;28;20192;-71
2023/04/27 06:13:20;;;;;;;5.13;4.30;;;;;;;7.96;49.61;94827.72;5076179;28;20197;-69
2023/04/27 06:15:52;;;;;;;5.20;3.92;;;;;;;7.96;50.01;94823.03;5075396;28;20197;-71
2023/04/27 06:18:21;;;;;;;4.13;3.72;;;;;;;8.06;49.80;94818.22;5076622;28;20189;-71
2023/04/27 06:20:49;;;;;;;5.57;3.20;;;;;;;8.07;49.77;94817.09;5108624;28;20628;-71
2023/04/27 06:23:18;;;;;;;5.82;3.47;;;;;;;8.20;50.42;94816.72;5076050;28;20205;-71
2023/04/27 06:25:46;;;;;;;3.35;2.90;;;;;;;8.41;50.34;94816.63;5075587;28;20288;-71
2023/04/27 06:28:17;;;;;;;3.38;3.03;;;;;;;8.61;49.29;94806.66;5075729;28;20220;-71
2023/04/27 06:30:46;;;;;;;4.68;3.13;;;;;;;8.69;48.36;94815.94;5075944;28;20263;-71
2023/04/27 06:33:17;;;;;;;4.80;3.33;;;;;;;8.71;47.93;94813.63;5075640;28;20193;-71
2023/04/27 06:35:45;;;;;;;3.00;2.25;;;;;;;8.81;47.93;94804.09;5075473;28;20193;-71
2023/04/27 06:38:15;;;;;;;4.22;3.20;;;;;;;8.85;47.57;94807.75;5076317;28;20185;-71
2023/04/27 06:40:45;;;;;;;4.45;3.13;;;;;;;8.91;48.00;94807.16;5075728;28;20189;-71
2023/04/27 06:43:19;;;;;;;4.32;3.90;;;;;;;8.91;47.02;94807.16;5076266;28;20189;-71
2023/04/27 06:45:52;;;;;;;3.83;3.42;;;;;;;8.88;46.86;94801.56;5109146;28;20204;-71
2023/04/27 06:48:20;;;;;;;5.57;4.05;;;;;;;8.94;46.96;94804.88;5074912;28;20320;-71
2023/04/27 06:50:47;;;;;;;5.35;4.18;;;;;;;8.94;46.78;94804.88;5076004;28;20259;-71
2023/04/27 06:53:16;;;;;;;5.45;3.95;;;;;;;8.98;47.01;94800.28;5075962;28;20204;-71
2023/04/27 06:55:43;;;;;;;4.93;4.43;;;;;;;8.99;46.68;94810.91;5075898;28;20235;-71
2023/04/27 06:58:10;;;;;;;6.45;3.70;;;;;;;9.02;46.04;94801.16;5075842;28;20225;-71
2023/04/27 07:00:37;;;;;;;4.35;3.72;;;;;;;9.05;46.39;94797.72;5075870;28;20189;-71
2023/04/27 07:03:05;;;;;;;3.97;3.40;;;;;;;9.09;46.26;94802.16;5108873;28;20197;-71
2023/04/27 07:05:38;;;;;;;5.47;3.10;;;;;;;9.12;46.13;94795.16;5108839;28;20197;-70
2023/04/27 07:08:07;;;;;;;5.68;3.70;;;;;;;9.16;45.76;94794.13;5075706;28;20244;-71
2023/04/27 07:10:36;;;;;;;3.42;3.13;;;;;;;9.16;45.98;94791.38;5108631;28;20201;-71
2023/04/27 07:13:03;;;;;;;3.95;3.20;;;;;;;9.23;45.93;94792.72;5075700;28;20207;-71
2023/04/27 07:15:33;;;;;;;3.72;3.33;;;;;;;9.26;45.43;94787.31;5074405;28;20629;-71
2023/04/27 07:18:01;;;;;;;4.13;3.42;;;;;;;9.33;45.74;94792.19;5074719;28;20225;-71
2023/04/27 07:20:28;;;;;;;3.78;3.35;;;;;;;9.43;46.24;94791.69;5075212;28;20196;-71
2023/04/27 07:23:00;;;;;;;6.40;3.13;;;;;;;9.49;45.70;94795.78;5074517;28;20613;-71
2023/04/27 07:25:29;;;;;;;3.92;3.25;;;;;;;9.47;46.11;94798.09;5108571;28;20201;-71
2023/04/27 07:27:58;;;;;;;6.35;3.47;;;;;;;9.46;45.78;94788.22;5074399;28;20262;-71
2023/04/27 07:30:25;;;;;;;3.97;3.10;;;;;;;9.54;46.99;94787.25;5075018;28;20212;-71
2023/04/27 07:32:53;;;;;;;6.05;3.80;;;;;;;9.68;45.69;94784.09;5074551;28;20201;-71
2023/04/27 07:35:22;;;;;;;4.70;3.15;;;;;;;9.71;44.78;94796.34;5075113;28;20590;-71
2023/04/27 07:37:51;;;;;;;4.57;3.08;;;;;;;9.78;45.57;94789.06;5075333;28;20193;-71
2023/04/27 07:40:21;;;;;;;4.13;2.83;;;;;;;9.88;45.28;94788.56;5075614;28;20186;-70
2023/04/27 07:42:49;;;;;;;4.93;3.55;;;;;;;9.94;44.89;94797.34;5075092;28;20294;-71
2023/04/27 07:45:18;;;;;;;5.55;2.85;;;;;;;9.96;45.16;94802.50;5074523;28;20246;-70
2023/04/27 07:47:47;;;;;;;5.45;3.80;;;;;;;9.95;44.32;94793.44;5074026;28;20209;-70
2023/04/27 07:50:23;;;;;;;4.93;4.43;;;;;;;10.02;44.00;94793.63;5075246;28;20181;-71
2023/04/27 07:52:51;;;;;;;4.97;3.38;;;;;;;10.18;43.74;94790.06;5108237;28;20203;-71
2023/04/27 07:55:25;;;;;;;4.18;3.67;;;;;;;10.24;43.33;94796.88;5074754;28;20205;-71
2023/04/27 07:57:52;;;;;;;5.03;3.03;;;;;;;10.23;43.05;94785.06;5073811;28;20232;-71
2023/04/27 08:00:20;;;;;;;4.07;3.10;;;;;;;10.21;43.34;94794.84;5075068;28;20192;-71
2023/04/27 08:02:50;;;;;;;3.13;2.58;;;;;;;10.38;44.29;94788.19;5074231;28;20201;-70
2023/04/27 08:05:18;;;;;;;5.35;3.05;;;;;;;10.69;44.05;94788.13;5075066;28;20616;-71
2023/04/27 08:07:47;;;;;;;3.78;2.75;;;;;;;11.12;44.03;94789.03;5107821;28;20189;-71
2023/04/27 08:10:16;;;;;;;4.95;2.97;;;;;;;11.14;40.76;94785.91;5074347;28;20291;-71
2023/04/27 08:12:48;;;;;;;3.08;2.78;;;;;;;11.07;41.51;94789.31;5073777;28;20201;-71
2023/04/27 08:15:18;;;;;;;3.03;2.78;;;;;;;11.16;41.78;94789.91;5074472;28;20250;-71
2023/04/27 08:17:48;;;;;;;4.38;2.95;;;;;;;11.23;41.97;94784.53;5107014;28;20205;-71
2023/04/27 08:20:14;;;;;;;3.90;3.00;;;;;;;11.26;40.86;94792.09;5074238;28;20597;-71
2023/04/27 08:22:44;;;;;;;3.75;2.90;;;;;;;11.13;41.82;94789.81;5074546;28;20605;-71
2023/04/27 08:25:13;;;;;;;3.40;3.10;;;;;;;11.26;42.23;94796.81;5074697;28;20200;-71
2023/04/27 08:27:41;;;;;;;5.57;3.25;;;;;;;11.24;40.83;94801.88;5073655;28;20201;-71
2023/04/27 08:30:17;;;;;;;4.28;3.00;;;;;;;11.30;41.13;94779.16;5073982;28;20205;-70
2023/04/27 08:32:46;;;;;;;5.10;3.38;;;;;;;11.53;41.88;94783.91;5074881;28;20621;-70
2023/04/27 08:35:16;;;;;;;3.58;2.80;;;;;;;11.78;41.34;94773.31;5073820;28;20201;-69
2023/04/27 08:37:44;;;;;;;4.32;3.28;;;;;;;11.95;40.69;94791.41;5073851;28;20235;-69
2023/04/27 08:40:13;;;;;;;3.33;3.03;;;;;;;12.02;39.66;94797.06;5074529;28;20523;-70
2023/04/27 08:42:42;;;;;;;4.10;3.00;;;;;;;11.94;39.58;94784.28;5074319;28;20247;-71
2023/04/27 08:45:19;;;;;;;3.42;2.80;;;;;;;11.85;38.99;94779.00;5108863;28;20548;-71
2023/04/27 08:47:49;;;;;;;2.75;2.55;;;;;;;11.91;40.52;94787.75;5077519;28;20189;-71
2023/04/27 08:50:18;;;;;;;3.20;2.90;;;;;;;11.95;39.41;94783.13;5078407;28;20254;-71
2023/04/27 08:52:46;;;;;;;3.42;2.70;;;;;;;11.98;40.44;94779.59;5077585;28;20207;-72
2023/04/27 08:55:13;;;;;;;4.28;2.67;;;;;;;11.87;39.84;94790.47;5077609;28;20201;-72
2023/04/27 08:57:39;;;;;;;5.80;3.03;;;;;;;11.95;40.30;94775.63;5078045;28;20224;-72
2023/04/27 09:00:12;;;;;;;3.55;2.45;;;;;;;12.29;42.14;94782.09;5078165;28;20185;-72
2023/04/27 09:02:49;;;;;;;4.85;2.67;;;;;;;12.59;41.06;94786.91;5077540;28;20197;-72
2023/04/27 09:05:19;;;;;;;5.78;3.50;;;;;;;12.51;39.53;94783.22;5077299;28;20208;-72
2023/04/27 09:08:04;;;;;;;3.97;2.97;;;;;;;12.46;39.48;94780.00;5078178;28;20196;-72
2023/04/27 09:10:31;;;;;;;3.70;2.75;;;;;;;12.50;38.42;94798.25;5077918;28;20200;-72
2023/04/27 09:12:59;;;;;;;3.00;2.70;;;;;;;12.45;38.61;94783.91;5077267;28;20222;-72
2023/04/27 09:15:30;;;;;;;3.17;2.30;;;;;;;12.69;40.89;94775.19;5076963;28;20197;-72
2023/04/27 09:18:02;;;;;;;2.70;2.50;;;;;;;12.84;39.50;94776.19;5076959;28;20191;-70
2023/04/27 09:20:29;;;;;;;2.75;2.55;;;;;;;12.84;38.61;94769.88;5078109;28;20193;-72
2023/04/27 09:22:59;;;;;;;3.63;2.70;;;;;;;13.00;38.45;94768.53;5077780;28;20272;-72
2023/04/27 09:25:27;;;;;;;3.25;2.90;;;;;;;13.20;38.85;94766.38;5077526;28;20608;-70
2023/04/27 09:27:57;;;;;;;3.65;3.08;;;;;;;13.41;37.87;94774.19;5077562;28;20197;-70
2023/04/27 09:30:24;;;;;;;3.03;2.75;;;;;;;13.44;36.89;94765.13;5077561;28;20235;-72
2023/04/27 09:32:56;;;;;;;5.30;3.30;;;;;;;13.48;37.63;94768.72;5077329;28;20193;-69
2023/04/27 09:35:34;;;;;;;3.55;2.80;;;;;;;13.67;37.46;94764.16;5077571;28;20271;-69
2023/04/27 09:38:05;;;;;;;3.10;2.80;;;;;;;13.84;36.43;94760.78;5076523;28;20185;-69
2023/04/27 09:40:35;;;;;;;3.67;3.35;;;;;;;14.02;37.09;94760.97;5076225;28;20201;-69
2023/04/27 09:43:03;;;;;;;3.13;2.83;;;;;;;13.99;37.06;94747.84;5110670;28;20205;-69
2023/04/27 09:45:29;;;;;;;3.58;2.90;;;;;;;14.16;36.67;94749.16;5076162;28;20209;-69
2023/04/27 09:47:56;;;;;;;4.00;3.15;;;;;;;14.11;35.67;94749.53;5077275;28;20204;-69
2023/04/27 09:50:36;;;;;;;4.13;3.20;;;;;;;14.28;36.66;94750.88;5110026;28;20266;-69
2023/04/27 09:53:03;;;;;;;2.97;2.50;;;;;;;14.32;35.19;94740.59;5076265;28;20193;-69
2023/04/27 09:55:36;;;;;;;3.20;2.90;;;;;;;14.36;35.23;94746.97;5076766;28;20211;-69
2023/04/27 09:58:14;;;;;;;3.20;2.40;;;;;;;14.36;34.15;94744.19;5077043;28;20232;-74
2023/04/27 10:00:55;;;;;;;4.05;2.80;;;;;;;14.34;36.22;94738.22;5077051;28;20212;-71
2023/04/27 10:03:31;;;;;;;3.22;2.75;;;;;;;14.47;35.62;94739.50;5110207;28;20197;-70
2023/04/27 10:06:39;;;;;;;3.80;2.50;;;;;;;14.49;36.60;94733.56;5076887;28;20204;-70
2023/04/27 10:09:13;;;;;;;3.05;2.80;;;;;;;14.60;36.30;94743.59;5075901;28;20208;-70
2023/04/27 10:11:43;;;;;;;5.10;2.70;;;;;;;14.34;34.82;94747.34;5076797;28;20232;-70
2023/04/27 10:14:16;;;;;;;3.00;2.42;;;;;;;14.07;34.25;94740.38;5076203;28;20224;-71
2023/04/27 10:16:53;;;;;;;3.08;2.78;;;;;;;14.13;34.65;94736.88;5075748;28;20205;-73
2023/04/27 10:19:20;;;;;;;2.80;2.60;;;;;;;14.15;34.47;94734.50;5076860;28;20200;-70
2023/04/27 10:21:59;;;;;;;3.63;2.50;;;;;;;14.18;34.51;94738.50;5075645;28;20201;-70
2023/04/27 10:24:35;;;;;;;2.97;2.75;;;;;;;14.14;35.97;94737.69;5076996;28;20201;-71
2023/04/27 10:27:04;;;;;;;4.85;2.80;;;;;;;14.46;35.46;94735.16;5076593;28;20189;-71
2023/04/27 10:29:39;;;;;;;4.13;2.70;;;;;;;14.65;33.81;94734.91;5076439;28;20270;-72
2023/04/27 10:32:13;;;;;;;2.95;2.60;;;;;;;14.95;34.88;94728.31;5076735;28;20251;-70
2023/04/27 10:34:41;;;;;;;2.83;2.60;;;;;;;15.08;33.36;94734.34;5076562;28;20182;-70
2023/04/27 10:37:09;;;;;;;3.35;2.58;;;;;;;14.73;34.33;94729.41;5076516;28;20278;-70
2023/04/27 10:39:41;;;;;;;3.00;2.70;;;;;;;14.73;33.21;94735.75;5075426;28;20205;-70
2023/04/27 10:42:08;;;;;;;4.80;2.70;;;;;;;14.87;33.62;94724.72;5109044;28;20214;-70
2023/04/27 10:44:36;;;;;;;2.72;2.53;;;;;;;15.10;31.89;94724.41;5076174;28;20192;-70
2023/04/27 10:47:13;;;;;;;4.78;2.35;;;;;;;15.31;33.79;94720.94;5074909;28;20200;-70
2023/04/27 10:49:40;;;;;;;2.78;2.13;;;;;;;15.57;32.06;94724.56;5075993;28;20209;-70
2023/04/27 10:52:07;;;;;;;2.40;2.20;;;;;;;15.42;30.96;94723.75;5075893;28;20197;-70
2023/04/27 10:54:36;;;;;;;3.25;2.30;;;;;;;15.08;31.86;94737.13;5075332;28;20185;-72
2023/04/27 10:57:06;;;;;;;4.70;2.40;;;;;;;14.71;32.47;94734.56;5076146;28;20241;-69
2023/04/27 10:59:35;;;;;;;2.85;2.53;;;;;;;14.55;33.38;94734.84;5108933;28;20255;-70
2023/04/27 11:02:02;;;;;;;3.05;2.50;;;;;;;14.44;33.49;94732.75;5109417;28;20196;-70
2023/04/27 11:04:40;;;;;;;3.55;2.55;;;;;;;14.35;33.50;94731.50;5108968;28;20201;-70
2023/04/27 11:07:09;;;;;;;2.53;2.33;;;;;;;14.21;33.07;94723.88;5074702;28;20208;-70
2023/04/27 11:09:40;;;;;;;3.05;2.65;;;;;;;14.06;33.37;94734.06;5075773;28;20255;-70
2023/04/27 11:12:09;;;;;;;4.53;2.50;;;;;;;14.08;33.73;94720.59;5075802;28;20213;-70
2023/04/27 11:14:37;;;;;;;3.58;2.70;;;;;;;14.36;34.36;94722.78;5074518;28;20598;-71
2023/04/27 11:17:08;;;;;;;3.20;2.50;;;;;;;14.44;33.80;94724.41;5075677;28;20185;-71
2023/04/27 11:19:44;;;;;;;3.17;2.75;;;;;;;14.62;33.56;94723.78;5074381;28;20228;-71
2023/04/27 11:22:11;;;;;;;3.97;3.05;;;;;;;14.49;33.44;94728.00;5075505;28;20242;-70
2023/04/27 11:24:47;;;;;;;4.10;2.60;;;;;;;14.33;34.39;94734.66;5075179;28;20531;-71
2023/04/27 11:27:15;;;;;;;4.15;2.78;;;;;;;14.15;33.94;94739.25;5075476;28;20283;-71
2023/04/27 11:29:43;;;;;;;3.40;3.10;;;;;;;14.08;34.17;94725.34;5075348;28;20241;-70
2023/04/27 11:32:18;;;;;;;3.80;2.90;;;;;;;14.10;34.66;94734.09;5075498;28;20185;-71
2023/04/27 11:34:49;;;;;;;3.00;2.70;;;;;;;14.12;34.11;94735.28;5074677;28;20199;-71
2023/04/27 11:37:23;;;;;;;3.58;2.72;;;;;;;14.38;34.72;94731.53;5075158;28;20196;-71
2023/04/27 11:39:52;;;;;;;3.13;2.65;;;;;;;14.49;34.58;94741.88;5074120;28;20235;-71
2023/04/27 11:42:31;;;;;;;2.90;2.70;;;;;;;14.48;35.47;94741.09;5074546;28;20260;-71
2023/04/27 11:45:00;;;;;;;2.75;2.55;;;;;;;14.70;35.06;94739.28;5075287;28;20185;-71
2023/04/27 11:47:30;;;;;;;3.45;2.70;;;;;;;14.82;34.13;94730.66;5075242;28;20181;-71
2023/04/27 11:50:02;;;;;;;4.30;3.00;;;;;;;14.86;34.20;94739.00;5073846;28;20246;-71
2023/04/27 11:52:33;;;;;;;2.97;2.40;;;;;;;14.86;35.48;94742.56;5075026;28;20200;-70
2023/04/27 11:55:02;;;;;;;5.30;3.03;;;;;;;14.97;33.81;94737.06;5108106;28;20204;-71
2023/04/27 11:57:34;;;;;;;3.80;2.80;;;;;;;15.15;32.74;94737.94;5074153;28;20657;-71
2023/04/27 12:00:09;;;;;;;3.72;2.60;;;;;;;15.34;34.78;94736.03;5108221;28;20201;-70
2023/04/27 12:02:37;;;;;;;3.10;2.80;;;;;;;15.25;32.19;94747.53;5108365;28;20197;-70
2023/04/27 12:05:06;;;;;;;3.92;2.70;;;;;;;15.26;31.78;94740.78;5074146;28;20193;-71
2023/04/27 12:07:33;;;;;;;2.70;2.50;;;;;;;15.31;32.90;94745.94;5073666;28;20565;-72
2023/04/27 12:10:01;;;;;;;3.25;2.30;;;;;;;15.31;33.02;94745.94;5075008;28;20285;-73
2023/04/27 12:12:28;;;;;;;4.43;2.80;;;;;;;15.34;32.24;94742.38;5075024;28;20189;-73
2023/04/27 12:15:00;;;;;;;3.60;2.47;;;;;;;15.16;31.47;94739.53;5075346;28;20209;-73
2023/04/27 12:17:30;;;;;;;2.83;2.30;;;;;;;14.97;32.63;94737.06;5108081;28;20258;-74
2023/04/27 12:20:01;;;;;;;4.70;2.83;;;;;;;14.80;32.30;94738.56;5077564;28;20667;-73
2023/04/27 12:22:27;;;;;;;3.97;2.63;;;;;;;14.75;32.86;94746.47;5079174;28;20189;-73
2023/04/27 12:24:54;;;;;;;4.70;2.60;;;;;;;14.86;33.99;94744.56;5079039;28;20197;-73
2023/04/27 12:27:23;;;;;;;3.33;3.03;;;;;;;15.00;33.12;94749.38;5078961;28;20209;-73
2023/04/27 12:29:53;;;;;;;3.13;2.40;;;;;;;14.91;32.58;94747.72;5078664;28;20212;-73
2023/04/27 12:32:22;;;;;;;3.53;2.65;;;;;;;14.83;34.22;94760.00;5078793;28;20185;-73
2023/04/27 12:34:50;;;;;;;3.78;2.97;;;;;;;14.70;32.89;94744.84;5078747;28;20197;-73
2023/04/27 12:37:17;;;;;;;3.67;2.63;;;;;;;14.51;33.08;94748.69;5077813;28;20196;-73
2023/04/27 12:39:44;;;;;;;3.10;2.80;;;;;;;14.37;32.59;94754.09;5078688;28;20200;-75
2023/04/27 12:42:12;;;;;;;2.90;2.70;;;;;;;14.31;33.22;94759.22;5078046;28;20203;-75
2023/04/27 12:44:40;;;;;;;3.35;2.70;;;;;;;14.23;33.62;94748.44;5078604;28;20247;-73
2023/04/27 12:47:06;;;;;;;2.65;2.45;;;;;;;14.25;33.11;94757.97;5077681;28;20189;-73
2023/04/27 12:49:35;;;;;;;2.72;2.50;;;;;;;14.13;32.77;94747.97;5078302;28;20193;-73
2023/04/27 12:52:06;;;;;;;2.88;2.67;;;;;;;14.07;33.57;94745.94;5077677;28;20596;-73
2023/04/27 12:54:35;;;;;;;4.05;2.97;;;;;;;14.03;33.74;94748.69;5077923;28;20197;-73
2023/04/27 12:57:05;;;;;;;2.88;2.58;;;;;;;14.01;34.39;94745.47;5078036;28;20270;-73
2023/04/27 12:59:32;;;;;;;2.85;2.55;;;;;;;14.03;35.22;94759.78;5078231;28;20189;-73
2023/04/27 13:01:58;;;;;;;3.78;2.50;;;;;;;14.09;34.28;94749.94;5078243;28;20250;-73
2023/04/27 13:04:25;;;;;;;3.28;2.30;;;;;;;14.11;34.48;94747.56;5077958;28;20513;-73
2023/04/27 13:06:53;;;;;;;2.75;2.55;;;;;;;14.05;34.49;94748.28;5111370;28;20205;-70
2023/04/27 13:09:23;;;;;;;4.03;2.55;;;;;;;13.92;33.60;94743.03;5111030;28;20205;-70
2023/04/27 13:11:52;;;;;;;2.92;2.45;;;;;;;13.81;33.72;94744.13;5077150;28;20287;-70
2023/04/27 13:14:22;;;;;;;2.97;2.60;;;;;;;13.81;34.28;94741.34;5077528;28;20211;-70
2023/04/27 13:16:50;;;;;;;4.00;2.70;;;;;;;13.85;35.43;94742.97;5077978;28;20186;-70
2023/04/27 13:19:18;;;;;;;3.33;2.75;;;;;;;13.94;36.79;94745.41;5077045;28;20204;-70
2023/04/27 13:21:48;;;;;;;4.60;2.42;;;;;;;13.83;35.81;94745.31;5077938;28;20208;-72
2023/04/27 13:24:18;;;;;;;4.00;3.03;;;;;;;13.65;36.83;94738.81;5077856;28;20247;-73
2023/04/27 13:26:45;;;;;;;4.30;3.90;;;;;;;13.56;36.85;94741.09;5110477;28;20201;-72
2023/04/27 13:29:14;;;;;;;2.83;2.63;;;;;;;13.47;36.61;94746.94;5077665;28;20276;-73
2023/04/27 13:31:41;;;;;;;7.28;4.30;;;;;;;13.40;37.29;94738.56;5077327;28;20217;-73
2023/04/27 13:34:08;;;;;;;5.38;3.20;;;;;;;13.41;38.64;94738.16;5077284;28;20208;-73
2023/04/27 13:36:36;;;;;;;3.08;2.80;;;;;;;13.39;38.30;94734.97;5077239;28;20212;-73
2023/04/27 13:39:03;;;;;;;2.75;2.38;;;;;;;13.40;38.51;94738.56;5077452;28;20189;-73
2023/04/27 13:41:39;;;;;;;3.90;2.88;;;;;;;13.41;37.70;94735.41;5077112;28;20280;-73
2023/04/27 13:44:08;;;;;;;3.33;2.58;;;;;;;13.43;38.31;94744.13;5076496;28;20193;-73
2023/04/27 13:46:36;;;;;;;5.25;2.30;;;;;;;13.42;36.85;94741.75;5077207;28;20219;-73
2023/04/27 13:49:05;;;;;;;2.70;2.42;;;;;;;13.41;38.02;94742.91;5077073;28;20283;-73
2023/04/27 13:51:32;;;;;;;2.53;2.33;;;;;;;13.24;37.08;94742.31;5076909;28;20205;-73
2023/04/27 13:54:01;;;;;;;3.50;2.40;;;;;;;13.15;36.62;94752.09;5077452;28;20184;-72
2023/04/27 13:56:30;;;;;;;3.53;2.65;;;;;;;13.13;37.64;94754.44;5077366;28;20196;-72
2023/04/27 13:59:00;;;;;;;4.43;4.03;;;;;;;13.10;37.88;94757.94;5076944;28;20204;-72
2023/04/27 14:01:31;;;;;;;3.03;2.78;;;;;;;13.01;37.25;94745.19;5077144;28;20588;-73
2023/04/27 14:04:01;;;;;;;3.05;2.75;;;;;;;12.95;36.88;94754.19;5107821;28;20204;-73
2023/04/27 14:06:32;;;;;;;2.53;2.20;;;;;;;12.89;37.40;94756.50;5077233;28;20239;-73
2023/04/27 14:09:00;;;;;;;2.80;2.60;;;;;;;12.84;36.89;94756.03;5076360;28;20189;-73
2023/04/27 14:11:29;;;;;;;2.72;2.25;;;;;;;12.83;37.71;94757.22;5076021;28;20213;-73
2023/04/27 14:13:58;;;;;;;2.67;2.47;;;;;;;12.84;38.59;94750.50;5076921;28;20235;-73
2023/04/27 14:16:26;;;;;;;5.45;2.67;;;;;;;12.76;37.90;94766.22;5076996;28;20589;-73
2023/04/27 14:18:53;;;;;;;3.38;2.70;;;;;;;12.76;37.87;94769.75;5076008;28;20193;-73
2023/04/27 14:21:20;;;;;;;3.92;2.47;;;;;;;12.75;38.07;94770.94;5075839;28;20201;-73
2023/04/27 14:23:50;;;;;;;3.05;2.72;;;;;;;12.79;37.22;94775.75;5076533;28;20489;-73
2023/04/27 14:26:20;;;;;;;3.30;3.00;;;;;;;12.77;37.82;94773.31;5075941;28;20204;-73
2023/04/27 14:28:47;;;;;;;3.55;2.55;;;;;;;12.73;35.99;94772.47;5075955;28;20197;-73
2023/04/27 14:31:14;;;;;;;3.00;2.70;;;;;;;12.73;37.52;94786.31;5076473;28;20223;-73
2023/04/27 14:33:46;;;;;;;2.35;2.15;;;;;;;12.96;39.17;94781.53;5076495;28;20193;-73
2023/04/27 14:36:17;;;;;;;3.10;2.70;;;;;;;13.04;37.81;94787.94;5076401;28;20262;-73
2023/04/27 14:38:43;;;;;;;3.10;2.78;;;;;;;13.05;37.08;94778.47;5076356;28;20198;-73
2023/04/27 14:41:11;;;;;;;2.83;2.40;;;;;;;13.01;36.03;94791.47;5075947;28;20189;-73
2023/04/27 14:43:41;;;;;;;3.10;2.50;;;;;;;13.00;36.04;94793.44;5108993;28;20205;-73
2023/04/27 14:46:07;;;;;;;6.53;2.85;;;;;;;13.02;35.65;94791.06;5076207;28;20181;-74
2023/04/27 14:48:35;;;;;;;2.85;2.28;;;;;;;13.07;36.87;94797.44;5075255;28;20201;-73
2023/04/27 14:51:05;;;;;;;4.43;2.70;;;;;;;13.06;36.90;94795.88;5075493;28;20256;-73
2023/04/27 14:53:32;;;;;;;4.60;2.67;;;;;;;13.01;37.29;94797.78;5076111;28;20258;-73
2023/04/27 14:56:01;;;;;;;3.80;2.88;;;;;;;13.01;37.59;94808.88;5076080;28;20196;-73
2023/04/27 14:58:30;;;;;;;5.28;3.45;;;;;;;13.08;37.07;94810.16;5108466;28;20237;-73
2023/04/27 15:01:00;;;;;;;5.00;2.60;;;;;;;13.02;36.49;94810.44;5075553;28;20200;-73
2023/04/27 15:03:31;;;;;;;2.63;2.22;;;;;;;12.90;36.76;94809.91;5075651;28;20193;-73
2023/04/27 15:06:02;;;;;;;2.75;2.55;;;;;;;12.79;37.04;94820.81;5108937;28;20303;-73
2023/04/27 15:08:35;;;;;;;4.47;2.63;;;;;;;12.76;35.53;94824.31;5075534;28;20185;-73
2023/04/27 15:11:03;;;;;;;3.50;2.38;;;;;;;12.71;35.64;94821.88;5075499;28;20219;-73
2023/04/27 15:13:31;;;;;;;3.00;2.80;;;;;;;12.69;36.24;94825.00;5075092;28;20207;-73
2023/04/27 15:16:00;;;;;;;3.47;2.60;;;;;;;12.60;36.33;94826.44;5075494;28;20193;-73
2023/04/27 15:18:36;;;;;;;4.05;2.78;;;;;;;12.47;36.59;94825.84;5075641;28;20197;-73
2023/04/27 15:21:07;;;;;;;5.07;3.22;;;;;;;12.45;36.69;94826.19;5075535;28;20275;-73
2023/04/27 15:23:40;;;;;;;3.58;2.88;;;;;;;12.43;36.84;94834.09;5075584;28;20192;-73
2023/04/27 15:26:07;;;;;;;4.40;2.70;;;;;;;12.37;36.92;94832.00;5074663;28;20196;-73
2023/04/27 15:28:36;;;;;;;3.42;3.13;;;;;;;12.32;36.13;94832.31;5075413;28;20197;-72
2023/04/27 15:31:03;;;;;;;3.38;2.55;;;;;;;12.26;36.56;94826.28;5075372;28;20209;-73
2023/04/27 15:33:30;;;;;;;3.00;2.60;;;;;;;12.23;36.28;94827.81;5108356;28;20201;-73
2023/04/27 15:36:00;;;;;;;3.40;3.08;;;;;;;12.16;36.41;94837.97;5074042;28;20250;-73
2023/04/27 15:38:31;;;;;;;3.22;2.92;;;;;;;12.13;37.15;94841.47;5108085;28;20220;-73
2023/04/27 15:41:00;;;;;;;3.97;3.58;;;;;;;12.12;36.88;94834.34;5075255;28;20201;-73
2023/04/27 15:43:29;;;;;;;3.05;2.85;;;;;;;12.09;36.87;94837.84;5074153;28;20545;-72
2023/04/27 15:45:58;;;;;;;3.15;2.50;;;;;;;12.04;36.93;94844.47;5075171;28;20192;-72